sensor_id;sensor_type;location;lat;lon;timestamp;P1;durP1;ratioP1;P2;durP2;ratioP2
70985;SDS011;58645;43.068;25.610;2023-05-07T00:00:02;15.38;;;8.75;;
70985;SDS011;58645;43.068;25.610;2023-05-07T00:02:32;12.40;;;7.97;;
70985;SDS011;58645;43.068;25.610;2023-05-07T00:04:58;11.32;;;7.18;;
70985;SDS011;58645;43.068;25.610;2023-05-07T00:07:24;13.38;;;7.47;;
70985;SDS011;58645;43.068;25.610;2023-05-07T00:09:50;16.30;;;8.93;;
70985;SDS011;58645;43.068;25.610;2023-05-07T00:12:15;24.27;;;11.40;;
70985;SDS011;58645;43.068;25.610;2023-05-07T00:14:41;32.88;;;13.23;;
70985;SDS011;58645;43.068;25.610;2023-05-07T00:17:07;23.67;;;12.00;;
70985;SDS011;58645;43.068;25.610;2023-05-07T00:19:32;17.05;;;9.82;;
70985;SDS011;58645;43.068;25.610;2023-05-07T00:21:58;15.13;;;8.50;;
70985;SDS011;58645;43.068;25.610;2023-05-07T00:24:24;15.95;;;7.93;;
70985;SDS011;58645;43.068;25.610;2023-05-07T00:26:50;49.17;;;9.88;;
70985;SDS011;58645;43.068;25.610;2023-05-07T00:29:16;18.70;;;8.82;;
70985;SDS011;58645;43.068;25.610;2023-05-07T00:31:41;17.85;;;8.88;;
70985;SDS011;58645;43.068;25.610;2023-05-07T00:34:07;12.15;;;8.00;;
70985;SDS011;58645;43.068;25.610;2023-05-07T00:36:33;14.10;;;8.82;;
70985;SDS011;58645;43.068;25.610;2023-05-07T00:38:59;14.35;;;9.13;;
70985;SDS011;58645;43.068;25.610;2023-05-07T00:41:27;15.60;;;8.68;;
70985;SDS011;58645;43.068;25.610;2023-05-07T00:43:52;18.00;;;8.80;;
70985;SDS011;58645;43.068;25.610;2023-05-07T00:46:19;17.67;;;8.70;;
70985;SDS011;58645;43.068;25.610;2023-05-07T00:48:46;13.63;;;9.18;;
70985;SDS011;58645;43.068;25.610;2023-05-07T00:51:12;34.42;;;8.35;;
70985;SDS011;58645;43.068;25.610;2023-05-07T00:53:38;59.47;;;9.27;;
70985;SDS011;58645;43.068;25.610;2023-05-07T00:56:04;62.47;;;9.77;;
70985;SDS011;58645;43.068;25.610;2023-05-07T01:00:57;57.28;;;11.10;;
70985;SDS011;58645;43.068;25.610;2023-05-07T01:03:23;209.70;;;18.58;;
70985;SDS011;58645;43.068;25.610;2023-05-07T01:05:49;89.32;;;10.80;;
70985;SDS011;58645;43.068;25.610;2023-05-07T01:08:16;121.15;;;14.65;;
70985;SDS011;58645;43.068;25.610;2023-05-07T01:10:42;151.32;;;14.60;;
70985;SDS011;58645;43.068;25.610;2023-05-07T01:13:09;44.70;;;9.48;;
70985;SDS011;58645;43.068;25.610;2023-05-07T01:15:36;159.43;;;16.77;;
70985;SDS011;58645;43.068;25.610;2023-05-07T01:18:03;100.18;;;13.77;;
70985;SDS011;58645;43.068;25.610;2023-05-07T01:20:29;70.35;;;11.93;;
70985;SDS011;58645;43.068;25.610;2023-05-07T01:22:55;15.95;;;8.57;;
70985;SDS011;58645;43.068;25.610;2023-05-07T01:25:22;82.50;;;12.23;;
70985;SDS011;58645;43.068;25.610;2023-05-07T01:27:49;29.48;;;9.50;;
70985;SDS011;58645;43.068;25.610;2023-05-07T01:30:14;55.28;;;12.38;;
70985;SDS011;58645;43.068;25.610;2023-05-07T01:32:43;24.30;;;9.40;;
70985;SDS011;58645;43.068;25.610;2023-05-07T01:35:26;15.07;;;8.43;;
70985;SDS011;58645;43.068;25.610;2023-05-07T01:37:54;14.32;;;8.80;;
70985;SDS011;58645;43.068;25.610;2023-05-07T01:40:20;17.25;;;7.80;;
70985;SDS011;58645;43.068;25.610;2023-05-07T01:42:46;20.52;;;8.32;;
70985;SDS011;58645;43.068;25.610;2023-05-07T01:45:13;17.65;;;8.18;;
70985;SDS011;58645;43.068;25.610;2023-05-07T01:47:39;53.25;;;8.90;;
70985;SDS011;58645;43.068;25.610;2023-05-07T01:50:05;30.05;;;7.90;;
70985;SDS011;58645;43.068;25.610;2023-05-07T01:52:33;18.73;;;6.70;;
70985;SDS011;58645;43.068;25.610;2023-05-07T01:55:01;19.95;;;7.38;;
70985;SDS011;58645;43.068;25.610;2023-05-07T01:57:26;52.38;;;8.40;;
70985;SDS011;58645;43.068;25.610;2023-05-07T01:59:52;33.60;;;7.95;;
70985;SDS011;58645;43.068;25.610;2023-05-07T02:02:18;42.95;;;8.77;;
70985;SDS011;58645;43.068;25.610;2023-05-07T02:04:44;23.30;;;7.68;;
70985;SDS011;58645;43.068;25.610;2023-05-07T02:07:09;33.95;;;7.60;;
70985;SDS011;58645;43.068;25.610;2023-05-07T02:09:35;46.15;;;9.65;;
70985;SDS011;58645;43.068;25.610;2023-05-07T02:12:01;17.40;;;7.65;;
70985;SDS011;58645;43.068;25.610;2023-05-07T02:14:26;34.35;;;8.07;;
70985;SDS011;58645;43.068;25.610;2023-05-07T02:16:52;23.75;;;8.43;;
70985;SDS011;58645;43.068;25.610;2023-05-07T02:19:18;35.50;;;8.30;;
70985;SDS011;58645;43.068;25.610;2023-05-07T02:21:46;17.65;;;7.28;;
70985;SDS011;58645;43.068;25.610;2023-05-07T02:24:12;26.20;;;10.02;;
70985;SDS011;58645;43.068;25.610;2023-05-07T02:26:39;67.10;;;12.20;;
70985;SDS011;58645;43.068;25.610;2023-05-07T02:29:05;39.20;;;14.55;;
70985;SDS011;58645;43.068;25.610;2023-05-07T02:31:30;63.53;;;14.25;;
70985;SDS011;58645;43.068;25.610;2023-05-07T02:33:56;111.80;;;19.67;;
70985;SDS011;58645;43.068;25.610;2023-05-07T02:36:22;163.35;;;31.60;;
70985;SDS011;58645;43.068;25.610;2023-05-07T02:38:47;224.82;;;39.45;;
70985;SDS011;58645;43.068;25.610;2023-05-07T02:41:13;212.15;;;31.45;;
70985;SDS011;58645;43.068;25.610;2023-05-07T02:43:39;90.13;;;21.73;;
70985;SDS011;58645;43.068;25.610;2023-05-07T02:46:06;236.05;;;27.40;;
70985;SDS011;58645;43.068;25.610;2023-05-07T02:48:33;125.05;;;22.00;;
70985;SDS011;58645;43.068;25.610;2023-05-07T02:51:00;206.45;;;24.23;;
70985;SDS011;58645;43.068;25.610;2023-05-07T02:53:26;101.35;;;17.02;;
70985;SDS011;58645;43.068;25.610;2023-05-07T02:55:55;67.80;;;14.82;;
70985;SDS011;58645;43.068;25.610;2023-05-07T02:58:22;61.78;;;15.18;;
70985;SDS011;58645;43.068;25.610;2023-05-07T03:00:48;53.72;;;14.15;;
70985;SDS011;58645;43.068;25.610;2023-05-07T03:03:14;52.75;;;13.75;;
70985;SDS011;58645;43.068;25.610;2023-05-07T03:05:40;103.60;;;16.88;;
70985;SDS011;58645;43.068;25.610;2023-05-07T03:08:06;56.78;;;13.25;;
70985;SDS011;58645;43.068;25.610;2023-05-07T03:10:32;45.40;;;13.85;;
70985;SDS011;58645;43.068;25.610;2023-05-07T03:12:58;58.17;;;13.90;;
70985;SDS011;58645;43.068;25.610;2023-05-07T03:15:24;36.05;;;13.75;;
70985;SDS011;58645;43.068;25.610;2023-05-07T03:17:51;61.17;;;14.00;;
70985;SDS011;58645;43.068;25.610;2023-05-07T03:20:17;111.28;;;16.80;;
70985;SDS011;58645;43.068;25.610;2023-05-07T03:22:43;139.25;;;17.77;;
70985;SDS011;58645;43.068;25.610;2023-05-07T03:25:09;98.00;;;16.85;;
70985;SDS011;58645;43.068;25.610;2023-05-07T03:27:35;75.07;;;13.82;;
70985;SDS011;58645;43.068;25.610;2023-05-07T03:30:00;109.38;;;15.43;;
70985;SDS011;58645;43.068;25.610;2023-05-07T03:32:26;125.80;;;17.75;;
70985;SDS011;58645;43.068;25.610;2023-05-07T03:34:52;207.18;;;23.10;;
70985;SDS011;58645;43.068;25.610;2023-05-07T03:37:18;166.95;;;20.30;;
70985;SDS011;58645;43.068;25.610;2023-05-07T03:39:44;177.60;;;19.13;;
70985;SDS011;58645;43.068;25.610;2023-05-07T03:42:10;145.02;;;18.83;;
70985;SDS011;58645;43.068;25.610;2023-05-07T03:44:35;116.05;;;17.63;;
70985;SDS011;58645;43.068;25.610;2023-05-07T03:47:01;107.03;;;14.68;;
70985;SDS011;58645;43.068;25.610;2023-05-07T03:49:27;188.30;;;20.40;;
70985;SDS011;58645;43.068;25.610;2023-05-07T03:51:53;159.40;;;19.02;;
70985;SDS011;58645;43.068;25.610;2023-05-07T03:54:19;126.20;;;16.00;;
70985;SDS011;58645;43.068;25.610;2023-05-07T03:56:45;54.33;;;13.07;;
70985;SDS011;58645;43.068;25.610;2023-05-07T03:59:11;64.18;;;12.30;;
70985;SDS011;58645;43.068;25.610;2023-05-07T04:01:38;62.08;;;13.00;;
70985;SDS011;58645;43.068;25.610;2023-05-07T04:04:03;71.47;;;14.52;;
70985;SDS011;58645;43.068;25.610;2023-05-07T04:06:30;52.03;;;13.57;;
70985;SDS011;58645;43.068;25.610;2023-05-07T04:08:56;36.67;;;12.93;;
70985;SDS011;58645;43.068;25.610;2023-05-07T04:11:21;64.60;;;14.73;;
70985;SDS011;58645;43.068;25.610;2023-05-07T04:13:47;45.10;;;14.68;;
70985;SDS011;58645;43.068;25.610;2023-05-07T04:16:13;26.40;;;13.75;;
70985;SDS011;58645;43.068;25.610;2023-05-07T04:18:39;39.75;;;14.50;;
70985;SDS011;58645;43.068;25.610;2023-05-07T04:21:05;41.58;;;17.60;;
70985;SDS011;58645;43.068;25.610;2023-05-07T04:23:31;43.22;;;16.02;;
70985;SDS011;58645;43.068;25.610;2023-05-07T04:25:56;46.38;;;14.65;;
70985;SDS011;58645;43.068;25.610;2023-05-07T04:28:22;37.50;;;14.25;;
70985;SDS011;58645;43.068;25.610;2023-05-07T04:33:14;28.75;;;13.10;;
70985;SDS011;58645;43.068;25.610;2023-05-07T04:35:43;30.58;;;13.20;;
70985;SDS011;58645;43.068;25.610;2023-05-07T04:38:09;30.15;;;12.82;;
70985;SDS011;58645;43.068;25.610;2023-05-07T04:40:37;27.02;;;12.68;;
70985;SDS011;58645;43.068;25.610;2023-05-07T04:43:04;29.88;;;14.77;;
70985;SDS011;58645;43.068;25.610;2023-05-07T04:45:29;26.00;;;12.45;;
70985;SDS011;58645;43.068;25.610;2023-05-07T04:47:55;28.23;;;12.98;;
70985;SDS011;58645;43.068;25.610;2023-05-07T04:50:21;24.98;;;10.80;;
70985;SDS011;58645;43.068;25.610;2023-05-07T04:52:49;26.95;;;11.98;;
70985;SDS011;58645;43.068;25.610;2023-05-07T04:55:15;25.83;;;12.13;;
70985;SDS011;58645;43.068;25.610;2023-05-07T04:57:41;23.95;;;11.80;;
70985;SDS011;58645;43.068;25.610;2023-05-07T05:00:07;25.20;;;11.90;;
70985;SDS011;58645;43.068;25.610;2023-05-07T05:02:34;29.27;;;13.10;;
70985;SDS011;58645;43.068;25.610;2023-05-07T05:05:00;32.00;;;14.07;;
70985;SDS011;58645;43.068;25.610;2023-05-07T05:07:29;37.63;;;16.40;;
70985;SDS011;58645;43.068;25.610;2023-05-07T05:09:55;26.75;;;14.77;;
70985;SDS011;58645;43.068;25.610;2023-05-07T05:12:22;29.90;;;15.30;;
70985;SDS011;58645;43.068;25.610;2023-05-07T05:14:48;41.47;;;19.45;;
70985;SDS011;58645;43.068;25.610;2023-05-07T05:17:14;35.83;;;18.23;;
70985;SDS011;58645;43.068;25.610;2023-05-07T05:19:39;32.08;;;17.80;;
70985;SDS011;58645;43.068;25.610;2023-05-07T05:22:05;28.52;;;16.58;;
70985;SDS011;58645;43.068;25.610;2023-05-07T05:24:31;40.15;;;17.73;;
70985;SDS011;58645;43.068;25.610;2023-05-07T05:26:57;33.10;;;18.90;;
70985;SDS011;58645;43.068;25.610;2023-05-07T05:29:24;31.80;;;18.35;;
70985;SDS011;58645;43.068;25.610;2023-05-07T05:31:50;34.38;;;18.60;;
70985;SDS011;58645;43.068;25.610;2023-05-07T05:34:16;25.85;;;13.90;;
70985;SDS011;58645;43.068;25.610;2023-05-07T05:36:44;21.67;;;12.25;;
70985;SDS011;58645;43.068;25.610;2023-05-07T05:39:10;24.65;;;13.35;;
70985;SDS011;58645;43.068;25.610;2023-05-07T05:41:36;21.83;;;13.07;;
70985;SDS011;58645;43.068;25.610;2023-05-07T05:44:02;23.60;;;13.35;;
70985;SDS011;58645;43.068;25.610;2023-05-07T05:46:28;22.25;;;12.32;;
70985;SDS011;58645;43.068;25.610;2023-05-07T05:48:53;18.65;;;11.63;;
70985;SDS011;58645;43.068;25.610;2023-05-07T05:51:20;21.35;;;15.50;;
70985;SDS011;58645;43.068;25.610;2023-05-07T05:53:46;19.90;;;14.02;;
70985;SDS011;58645;43.068;25.610;2023-05-07T05:56:12;17.13;;;12.20;;
70985;SDS011;58645;43.068;25.610;2023-05-07T05:58:38;16.63;;;11.65;;
70985;SDS011;58645;43.068;25.610;2023-05-07T06:01:03;17.27;;;11.88;;
70985;SDS011;58645;43.068;25.610;2023-05-07T06:05:57;11.85;;;8.85;;
70985;SDS011;58645;43.068;25.610;2023-05-07T06:08:23;12.38;;;9.23;;
70985;SDS011;58645;43.068;25.610;2023-05-07T06:10:48;10.30;;;7.07;;
70985;SDS011;58645;43.068;25.610;2023-05-07T06:13:15;7.53;;;6.53;;
70985;SDS011;58645;43.068;25.610;2023-05-07T06:15:40;8.02;;;5.05;;
70985;SDS011;58645;43.068;25.610;2023-05-07T06:18:06;10.40;;;5.53;;
70985;SDS011;58645;43.068;25.610;2023-05-07T06:20:32;7.45;;;5.05;;
70985;SDS011;58645;43.068;25.610;2023-05-07T06:22:57;4.47;;;3.83;;
70985;SDS011;58645;43.068;25.610;2023-05-07T06:25:23;8.18;;;4.82;;
70985;SDS011;58645;43.068;25.610;2023-05-07T06:30:14;5.55;;;4.00;;
70985;SDS011;58645;43.068;25.610;2023-05-07T06:35:06;8.57;;;5.32;;
70985;SDS011;58645;43.068;25.610;2023-05-07T06:39:57;6.45;;;4.60;;
70985;SDS011;58645;43.068;25.610;2023-05-07T06:44:49;8.40;;;4.65;;
70985;SDS011;58645;43.068;25.610;2023-05-07T06:49:40;9.68;;;5.18;;
70985;SDS011;58645;43.068;25.610;2023-05-07T06:52:06;7.97;;;4.70;;
70985;SDS011;58645;43.068;25.610;2023-05-07T06:56:57;6.70;;;4.18;;
70985;SDS011;58645;43.068;25.610;2023-05-07T06:59:23;5.18;;;4.03;;
70985;SDS011;58645;43.068;25.610;2023-05-07T07:01:49;5.18;;;3.30;;
70985;SDS011;58645;43.068;25.610;2023-05-07T07:04:14;6.32;;;3.75;;
70985;SDS011;58645;43.068;25.610;2023-05-07T07:06:40;4.70;;;3.50;;
70985;SDS011;58645;43.068;25.610;2023-05-07T07:09:06;7.28;;;3.53;;
70985;SDS011;58645;43.068;25.610;2023-05-07T07:11:32;5.72;;;3.58;;
70985;SDS011;58645;43.068;25.610;2023-05-07T07:13:57;4.75;;;3.55;;
70985;SDS011;58645;43.068;25.610;2023-05-07T07:16:24;5.68;;;3.15;;
70985;SDS011;58645;43.068;25.610;2023-05-07T07:18:50;6.13;;;3.72;;
70985;SDS011;58645;43.068;25.610;2023-05-07T07:21:16;7.88;;;4.32;;
70985;SDS011;58645;43.068;25.610;2023-05-07T07:23:41;6.10;;;3.85;;
70985;SDS011;58645;43.068;25.610;2023-05-07T07:26:07;7.05;;;3.83;;
70985;SDS011;58645;43.068;25.610;2023-05-07T07:28:33;5.35;;;3.13;;
70985;SDS011;58645;43.068;25.610;2023-05-07T07:30:59;6.60;;;3.83;;
70985;SDS011;58645;43.068;25.610;2023-05-07T07:33:25;6.35;;;3.38;;
70985;SDS011;58645;43.068;25.610;2023-05-07T07:35:50;6.57;;;3.83;;
70985;SDS011;58645;43.068;25.610;2023-05-07T07:38:16;9.48;;;4.30;;
70985;SDS011;58645;43.068;25.610;2023-05-07T07:40:42;8.43;;;4.28;;
70985;SDS011;58645;43.068;25.610;2023-05-07T07:43:08;5.60;;;3.65;;
70985;SDS011;58645;43.068;25.610;2023-05-07T07:45:34;2.58;;;1.75;;
70985;SDS011;58645;43.068;25.610;2023-05-07T07:48:00;3.63;;;1.77;;
70985;SDS011;58645;43.068;25.610;2023-05-07T07:50:26;2.72;;;1.70;;
70985;SDS011;58645;43.068;25.610;2023-05-07T07:52:52;4.00;;;2.05;;
70985;SDS011;58645;43.068;25.610;2023-05-07T07:55:19;4.03;;;2.00;;
70985;SDS011;58645;43.068;25.610;2023-05-07T07:57:47;2.75;;;1.42;;
70985;SDS011;58645;43.068;25.610;2023-05-07T08:00:14;3.22;;;1.25;;
70985;SDS011;58645;43.068;25.610;2023-05-07T08:02:40;3.67;;;1.52;;
70985;SDS011;58645;43.068;25.610;2023-05-07T08:05:06;4.10;;;1.80;;
70985;SDS011;58645;43.068;25.610;2023-05-07T08:07:32;4.95;;;1.90;;
70985;SDS011;58645;43.068;25.610;2023-05-07T08:09:58;2.58;;;1.80;;
70985;SDS011;58645;43.068;25.610;2023-05-07T08:12:24;3.67;;;1.63;;
70985;SDS011;58645;43.068;25.610;2023-05-07T08:14:50;1.95;;;1.45;;
70985;SDS011;58645;43.068;25.610;2023-05-07T08:17:15;1.90;;;1.50;;
70985;SDS011;58645;43.068;25.610;2023-05-07T08:19:42;1.70;;;1.13;;
70985;SDS011;58645;43.068;25.610;2023-05-07T08:22:08;2.00;;;1.40;;
70985;SDS011;58645;43.068;25.610;2023-05-07T08:24:35;2.75;;;1.38;;
70985;SDS011;58645;43.068;25.610;2023-05-07T08:27:02;1.85;;;0.93;;
70985;SDS011;58645;43.068;25.610;2023-05-07T08:29:27;4.22;;;0.98;;
70985;SDS011;58645;43.068;25.610;2023-05-07T08:31:53;2.28;;;1.02;;
70985;SDS011;58645;43.068;25.610;2023-05-07T08:34:19;1.95;;;1.00;;
70985;SDS011;58645;43.068;25.610;2023-05-07T08:36:44;4.82;;;0.98;;
70985;SDS011;58645;43.068;25.610;2023-05-07T08:39:13;3.78;;;0.93;;
70985;SDS011;58645;43.068;25.610;2023-05-07T08:41:41;3.70;;;1.13;;
70985;SDS011;58645;43.068;25.610;2023-05-07T08:44:11;3.80;;;1.10;;
70985;SDS011;58645;43.068;25.610;2023-05-07T08:46:41;2.33;;;0.80;;
70985;SDS011;58645;43.068;25.610;2023-05-07T08:49:08;2.63;;;1.02;;
70985;SDS011;58645;43.068;25.610;2023-05-07T08:51:34;1.30;;;1.00;;
70985;SDS011;58645;43.068;25.610;2023-05-07T08:54:01;2.35;;;1.10;;
70985;SDS011;58645;43.068;25.610;2023-05-07T08:56:27;1.55;;;1.00;;
70985;SDS011;58645;43.068;25.610;2023-05-07T08:58:53;2.88;;;0.98;;
70985;SDS011;58645;43.068;25.610;2023-05-07T09:01:21;2.13;;;0.93;;
70985;SDS011;58645;43.068;25.610;2023-05-07T09:03:47;2.42;;;0.90;;
70985;SDS011;58645;43.068;25.610;2023-05-07T09:06:15;1.45;;;0.93;;
70985;SDS011;58645;43.068;25.610;2023-05-07T09:08:41;2.38;;;0.75;;
70985;SDS011;58645;43.068;25.610;2023-05-07T09:11:14;2.72;;;1.10;;
70985;SDS011;58645;43.068;25.610;2023-05-07T09:13:40;3.13;;;0.98;;
70985;SDS011;58645;43.068;25.610;2023-05-07T09:16:12;1.95;;;1.00;;
70985;SDS011;58645;43.068;25.610;2023-05-07T09:18:42;3.83;;;1.30;;
70985;SDS011;58645;43.068;25.610;2023-05-07T09:21:14;2.60;;;0.90;;
70985;SDS011;58645;43.068;25.610;2023-05-07T09:23:41;1.77;;;0.90;;
70985;SDS011;58645;43.068;25.610;2023-05-07T09:26:07;3.00;;;1.00;;
70985;SDS011;58645;43.068;25.610;2023-05-07T09:28:40;2.83;;;1.40;;
70985;SDS011;58645;43.068;25.610;2023-05-07T09:31:06;5.75;;;1.17;;
70985;SDS011;58645;43.068;25.610;2023-05-07T09:33:33;2.15;;;1.10;;
70985;SDS011;58645;43.068;25.610;2023-05-07T09:36:03;2.13;;;1.33;;
70985;SDS011;58645;43.068;25.610;2023-05-07T09:38:31;3.20;;;1.15;;
70985;SDS011;58645;43.068;25.610;2023-05-07T09:41:01;3.00;;;1.23;;
70985;SDS011;58645;43.068;25.610;2023-05-07T09:43:37;4.95;;;1.13;;
70985;SDS011;58645;43.068;25.610;2023-05-07T09:46:46;2.80;;;1.33;;
70985;SDS011;58645;43.068;25.610;2023-05-07T09:48:56;1.88;;;1.20;;
70985;SDS011;58645;43.068;25.610;2023-05-07T09:51:29;3.63;;;1.40;;
70985;SDS011;58645;43.068;25.610;2023-05-07T09:54:00;4.18;;;1.35;;
70985;SDS011;58645;43.068;25.610;2023-05-07T09:56:29;2.88;;;1.27;;
70985;SDS011;58645;43.068;25.610;2023-05-07T09:58:56;3.67;;;1.23;;
70985;SDS011;58645;43.068;25.610;2023-05-07T10:01:26;4.35;;;1.30;;
70985;SDS011;58645;43.068;25.610;2023-05-07T10:03:53;3.47;;;1.13;;
70985;SDS011;58645;43.068;25.610;2023-05-07T10:06:20;4.18;;;1.42;;
70985;SDS011;58645;43.068;25.610;2023-05-07T10:08:47;4.03;;;1.10;;
70985;SDS011;58645;43.068;25.610;2023-05-07T10:11:14;2.25;;;1.30;;
70985;SDS011;58645;43.068;25.610;2023-05-07T10:13:41;3.00;;;1.30;;
70985;SDS011;58645;43.068;25.610;2023-05-07T10:16:07;3.83;;;1.30;;
70985;SDS011;58645;43.068;25.610;2023-05-07T10:18:33;3.22;;;1.27;;
70985;SDS011;58645;43.068;25.610;2023-05-07T10:24:05;1.90;;;1.35;;
70985;SDS011;58645;43.068;25.610;2023-05-07T10:26:39;5.60;;;1.50;;
70985;SDS011;58645;43.068;25.610;2023-05-07T10:34:57;3.33;;;1.50;;
70985;SDS011;58645;43.068;25.610;2023-05-07T10:37:31;3.13;;;1.40;;
70985;SDS011;58645;43.068;25.610;2023-05-07T10:39:58;5.00;;;1.15;;
70985;SDS011;58645;43.068;25.610;2023-05-07T10:42:24;3.28;;;1.27;;
70985;SDS011;58645;43.068;25.610;2023-05-07T10:44:50;7.35;;;1.52;;
70985;SDS011;58645;43.068;25.610;2023-05-07T10:47:16;3.50;;;1.33;;
70985;SDS011;58645;43.068;25.610;2023-05-07T10:52:20;5.03;;;1.48;;
70985;SDS011;58645;43.068;25.610;2023-05-07T10:54:48;3.55;;;1.50;;
70985;SDS011;58645;43.068;25.610;2023-05-07T10:57:39;6.38;;;1.45;;
70985;SDS011;58645;43.068;25.610;2023-05-07T11:05:25;4.30;;;1.60;;
70985;SDS011;58645;43.068;25.610;2023-05-07T11:07:56;2.08;;;1.27;;
70985;SDS011;58645;43.068;25.610;2023-05-07T11:13:19;2.65;;;1.42;;
70985;SDS011;58645;43.068;25.610;2023-05-07T11:16:21;3.95;;;1.30;;
70985;SDS011;58645;43.068;25.610;2023-05-07T11:18:52;2.08;;;1.42;;
70985;SDS011;58645;43.068;25.610;2023-05-07T11:24:02;2.17;;;1.63;;
70985;SDS011;58645;43.068;25.610;2023-05-07T11:26:30;2.63;;;1.23;;
70985;SDS011;58645;43.068;25.610;2023-05-07T11:29:15;2.40;;;1.38;;
70985;SDS011;58645;43.068;25.610;2023-05-07T11:31:52;3.83;;;1.35;;
70985;SDS011;58645;43.068;25.610;2023-05-07T11:34:22;3.83;;;1.33;;
70985;SDS011;58645;43.068;25.610;2023-05-07T11:36:49;4.63;;;1.60;;
70985;SDS011;58645;43.068;25.610;2023-05-07T11:39:24;4.45;;;1.38;;
70985;SDS011;58645;43.068;25.610;2023-05-07T11:41:58;4.82;;;1.48;;
70985;SDS011;58645;43.068;25.610;2023-05-07T11:44:40;6.20;;;1.27;;
70985;SDS011;58645;43.068;25.610;2023-05-07T11:47:07;5.50;;;1.33;;
70985;SDS011;58645;43.068;25.610;2023-05-07T11:49:33;4.47;;;1.63;;
70985;SDS011;58645;43.068;25.610;2023-05-07T11:51:59;4.05;;;1.52;;
70985;SDS011;58645;43.068;25.610;2023-05-07T11:54:25;5.10;;;1.38;;
70985;SDS011;58645;43.068;25.610;2023-05-07T11:56:51;4.28;;;1.92;;
70985;SDS011;58645;43.068;25.610;2023-05-07T11:59:17;2.53;;;1.15;;
70985;SDS011;58645;43.068;25.610;2023-05-07T12:01:45;4.22;;;1.33;;
70985;SDS011;58645;43.068;25.610;2023-05-07T12:04:12;2.22;;;1.42;;
70985;SDS011;58645;43.068;25.610;2023-05-07T12:06:37;3.47;;;1.30;;
70985;SDS011;58645;43.068;25.610;2023-05-07T12:09:03;3.15;;;1.38;;
70985;SDS011;58645;43.068;25.610;2023-05-07T12:11:32;2.25;;;1.52;;
70985;SDS011;58645;43.068;25.610;2023-05-07T12:13:57;3.13;;;1.25;;
70985;SDS011;58645;43.068;25.610;2023-05-07T12:16:23;1.80;;;1.50;;
70985;SDS011;58645;43.068;25.610;2023-05-07T12:18:50;3.40;;;1.25;;
70985;SDS011;58645;43.068;25.610;2023-05-07T12:21:17;2.95;;;1.45;;
70985;SDS011;58645;43.068;25.610;2023-05-07T12:23:43;2.00;;;1.35;;
70985;SDS011;58645;43.068;25.610;2023-05-07T12:26:10;2.00;;;1.10;;
70985;SDS011;58645;43.068;25.610;2023-05-07T12:28:36;4.28;;;1.48;;
70985;SDS011;58645;43.068;25.610;2023-05-07T12:31:03;2.28;;;1.27;;
70985;SDS011;58645;43.068;25.610;2023-05-07T12:33:30;3.90;;;1.90;;
70985;SDS011;58645;43.068;25.610;2023-05-07T12:35:57;2.03;;;1.33;;
70985;SDS011;58645;43.068;25.610;2023-05-07T12:38:27;3.13;;;1.40;;
70985;SDS011;58645;43.068;25.610;2023-05-07T12:41:03;2.17;;;1.63;;
70985;SDS011;58645;43.068;25.610;2023-05-07T12:43:29;3.20;;;1.52;;
70985;SDS011;58645;43.068;25.610;2023-05-07T12:45:55;2.85;;;1.40;;
70985;SDS011;58645;43.068;25.610;2023-05-07T12:48:25;2.40;;;1.30;;
70985;SDS011;58645;43.068;25.610;2023-05-07T12:50:55;1.88;;;1.20;;
70985;SDS011;58645;43.068;25.610;2023-05-07T12:53:23;4.18;;;1.40;;
70985;SDS011;58645;43.068;25.610;2023-05-07T12:55:51;4.70;;;1.65;;
70985;SDS011;58645;43.068;25.610;2023-05-07T12:58:24;2.55;;;1.13;;
70985;SDS011;58645;43.068;25.610;2023-05-07T13:00:54;2.33;;;1.27;;
70985;SDS011;58645;43.068;25.610;2023-05-07T13:03:24;5.80;;;1.45;;
70985;SDS011;58645;43.068;25.610;2023-05-07T13:05:58;2.83;;;1.52;;
70985;SDS011;58645;43.068;25.610;2023-05-07T13:10:55;2.75;;;1.40;;
70985;SDS011;58645;43.068;25.610;2023-05-07T13:13:21;1.98;;;1.60;;
70985;SDS011;58645;43.068;25.610;2023-05-07T13:15:47;3.70;;;1.27;;
70985;SDS011;58645;43.068;25.610;2023-05-07T13:18:13;3.47;;;1.05;;
70985;SDS011;58645;43.068;25.610;2023-05-07T13:20:39;2.42;;;1.45;;
70985;SDS011;58645;43.068;25.610;2023-05-07T13:23:05;2.90;;;1.23;;
70985;SDS011;58645;43.068;25.610;2023-05-07T13:25:31;1.83;;;1.20;;
70985;SDS011;58645;43.068;25.610;2023-05-07T13:27:57;2.85;;;1.35;;
70985;SDS011;58645;43.068;25.610;2023-05-07T13:30:23;4.03;;;1.35;;
70985;SDS011;58645;43.068;25.610;2023-05-07T13:32:49;2.58;;;1.50;;
70985;SDS011;58645;43.068;25.610;2023-05-07T13:35:15;2.60;;;1.27;;
70985;SDS011;58645;43.068;25.610;2023-05-07T13:37:41;2.30;;;1.10;;
70985;SDS011;58645;43.068;25.610;2023-05-07T13:40:07;3.85;;;1.40;;
70985;SDS011;58645;43.068;25.610;2023-05-07T13:42:33;4.57;;;1.60;;
70985;SDS011;58645;43.068;25.610;2023-05-07T13:44:59;3.75;;;1.30;;
70985;SDS011;58645;43.068;25.610;2023-05-07T13:47:25;2.35;;;1.50;;
70985;SDS011;58645;43.068;25.610;2023-05-07T13:52:17;4.03;;;1.25;;
70985;SDS011;58645;43.068;25.610;2023-05-07T13:54:45;3.90;;;1.25;;
70985;SDS011;58645;43.068;25.610;2023-05-07T13:59:36;2.78;;;1.45;;
70985;SDS011;58645;43.068;25.610;2023-05-07T14:04:27;2.75;;;1.60;;
70985;SDS011;58645;43.068;25.610;2023-05-07T14:09:19;2.55;;;1.30;;
70985;SDS011;58645;43.068;25.610;2023-05-07T14:14:12;2.42;;;1.52;;
70985;SDS011;58645;43.068;25.610;2023-05-07T14:19:03;3.53;;;1.55;;
70985;SDS011;58645;43.068;25.610;2023-05-07T14:23:55;3.05;;;1.75;;
70985;SDS011;58645;43.068;25.610;2023-05-07T14:28:48;3.35;;;1.40;;
70985;SDS011;58645;43.068;25.610;2023-05-07T14:31:14;3.05;;;1.30;;
70985;SDS011;58645;43.068;25.610;2023-05-07T14:36:05;2.70;;;1.60;;
70985;SDS011;58645;43.068;25.610;2023-05-07T14:38:31;4.05;;;1.77;;
70985;SDS011;58645;43.068;25.610;2023-05-07T14:43:23;2.42;;;1.50;;
70985;SDS011;58645;43.068;25.610;2023-05-07T14:48:15;2.75;;;1.35;;
70985;SDS011;58645;43.068;25.610;2023-05-07T14:50:46;2.20;;;1.35;;
70985;SDS011;58645;43.068;25.610;2023-05-07T14:53:12;3.40;;;1.40;;
70985;SDS011;58645;43.068;25.610;2023-05-07T14:55:38;2.40;;;1.42;;
70985;SDS011;58645;43.068;25.610;2023-05-07T15:00:29;2.72;;;1.48;;
70985;SDS011;58645;43.068;25.610;2023-05-07T15:05:28;2.85;;;1.45;;
70985;SDS011;58645;43.068;25.610;2023-05-07T15:07:53;3.55;;;1.55;;
70985;SDS011;58645;43.068;25.610;2023-05-07T15:12:45;2.63;;;1.48;;
70985;SDS011;58645;43.068;25.610;2023-05-07T15:15:11;2.90;;;1.30;;
70985;SDS011;58645;43.068;25.610;2023-05-07T15:20:02;2.20;;;1.40;;
70985;SDS011;58645;43.068;25.610;2023-05-07T15:22:29;2.70;;;1.63;;
70985;SDS011;58645;43.068;25.610;2023-05-07T15:27:22;2.13;;;1.30;;
70985;SDS011;58645;43.068;25.610;2023-05-07T15:29:48;4.15;;;1.23;;
70985;SDS011;58645;43.068;25.610;2023-05-07T15:32:13;4.32;;;1.42;;
70985;SDS011;58645;43.068;25.610;2023-05-07T15:34:39;2.63;;;1.42;;
70985;SDS011;58645;43.068;25.610;2023-05-07T15:37:06;3.17;;;1.48;;
70985;SDS011;58645;43.068;25.610;2023-05-07T15:39:31;2.78;;;1.33;;
70985;SDS011;58645;43.068;25.610;2023-05-07T15:41:57;2.72;;;1.27;;
70985;SDS011;58645;43.068;25.610;2023-05-07T15:44:23;2.97;;;1.27;;
70985;SDS011;58645;43.068;25.610;2023-05-07T15:46:52;7.47;;;1.75;;